Current | Forecast
Updated: 5:00 PM JST on April 27, 2018
Observed at Miho AB, Japan
Temperature 66°F
Humidity 37%
Dew Point 39°F
Wind WSW at 22 mph
Pressure 29.83 in (Steady)
Conditions Partly Cloudy
Visibility 6.2 miles
UV 2 out of 16
Clouds (FEW) : 3500 ft
Yesterday's Maximum 63°F
Yesterday's Minimum 50°F approx.
Yesterday's Heating Degree Days 9 approx.
Sunrise5:20 AM JST
Sunset6:50 PM JST
Moon Rise3:58 PM JST
Moon Set3:53 AM JST
Moon PhaseMoon Phase
Waxing Gibbous
Raw METARMETAR RJOH 270800Z 25019KT 9999 FEW035 19/04 Q1010


Monday
. High: 71° F.
Tuesday
. High: 71° F.
Wednesday
. High: 66° F.
Thursday
. High: 69° F.
Friday
. High: 73° F.
Saturday
. High: 68° F.
Sunday
. High: 71° F.
Monday
. High: 69° F.

Units: English | Metric

Find the Weather for any City, State or Zipcode, or Country:

U.S. State List | Severe Weather | Tropical Storms | Ski Conditions
United States | Canada | Central America | South America | Asia | Europe | Australia | Africa | Islands

Weather Underground

© Copyright 2018
The Weather Company, LLC